Time;durP1;ratioP1;P1;durP2;ratioP2;P2;SDS_P1;SDS_P2;PMS_P1;PMS_P2;Temp;Humidity;BMP_temperature;BMP_pressure;BME280_temperature;BME280_humidity;BME280_pressure;Samples;Min_cycle;Max_cycle;Signal;HPM_P1;HPM_P2
2022/10/05 00:01:45;;;;;;;8.30;6.18;;;15.00;99.90;;;;;;5074597;28;20472;-78
2022/10/05 00:04:20;;;;;;;6.82;6.10;;;15.00;99.90;;;;;;5074595;28;20041;-78
2022/10/05 00:07:01;;;;;;;9.65;6.07;;;15.00;99.90;;;;;;5074654;28;20036;-78
2022/10/05 00:09:30;;;;;;;7.85;5.88;;;15.00;99.90;;;;;;5073334;28;20052;-78
2022/10/05 00:11:56;;;;;;;7.32;5.63;;;15.00;99.90;;;;;;5074446;28;20507;-78
2022/10/05 00:14:31;;;;;;;7.13;5.73;;;15.00;99.90;;;;;;5074392;28;20037;-78
2022/10/05 00:16:57;;;;;;;8.32;5.30;;;15.40;99.90;;;;;;5074372;28;20040;-78
2022/10/05 00:19:31;;;;;;;8.37;5.47;;;15.00;99.90;;;;;;5074407;28;20396;-78
2022/10/05 00:22:09;;;;;;;7.88;5.40;;;15.00;99.90;;;;;;5074633;28;20127;-78
2022/10/05 00:24:35;;;;;;;6.45;5.60;;;14.90;99.90;;;;;;5074260;28;20048;-78
2022/10/05 00:27:13;;;;;;;10.27;5.80;;;15.10;99.90;;;;;;5074169;28;20053;-78
2022/10/05 00:29:38;;;;;;;;;;;14.90;99.90;;;;;;5074630;28;20494;-78
2022/10/05 00:32:04;;;;;;;7.35;5.40;;;14.90;99.90;;;;;;5074106;28;20010;-78
2022/10/05 00:34:32;;;;;;;6.07;4.95;;;14.90;99.90;;;;;;5074113;28;20041;-78
2022/10/05 00:36:58;;;;;;;7.38;5.30;;;14.90;99.90;;;;;;5074043;28;20087;-78
2022/10/05 00:39:24;;;;;;;7.10;4.77;;;14.90;99.90;;;;;;5073968;28;20095;-78
2022/10/05 00:42:15;;;;;;;8.13;5.20;;;14.90;99.90;;;;;;5073873;28;20109;-78
2022/10/05 00:44:56;;;;;;;8.85;5.07;;;14.90;99.90;;;;;;5073948;28;20053;-78
2022/10/05 00:47:43;;;;;;;8.77;5.32;;;14.80;99.90;;;;;;5074226;28;20476;-78
2022/10/05 00:50:25;;;;;;;6.75;5.25;;;14.90;99.90;;;;;;5073967;28;20048;-78
2022/10/05 00:53:03;;;;;;;6.55;4.75;;;14.90;99.90;;;;;;5073840;28;20041;-78
2022/10/05 00:55:43;;;;;;;6.97;4.82;;;14.90;99.90;;;;;;5074028;28;20060;-78
2022/10/05 00:58:34;;;;;;;6.38;5.07;;;14.90;99.90;;;;;;5073589;28;20090;-78
2022/10/05 01:01:30;;;;;;;8.55;5.05;;;14.90;99.90;;;;;;5073667;28;20106;-78
2022/10/05 01:04:17;;;;;;;9.15;5.65;;;14.90;99.90;;;;;;5073922;28;20040;-78
2022/10/05 01:07:06;;;;;;;7.37;6.33;;;14.80;99.90;;;;;;5073733;28;20400;-78
2022/10/05 01:09:43;;;;;;;8.02;5.97;;;14.90;99.90;;;;;;5063085;28;20766;-78
2022/10/05 01:12:40;;;;;;;13.15;6.53;;;14.90;99.90;;;;;;5073936;28;20365;-78
2022/10/05 01:15:15;;;;;;;7.63;6.30;;;14.90;99.90;;;;;;5073622;28;20041;-78
2022/10/05 01:18:01;;;;;;;8.13;5.75;;;14.90;99.90;;;;;;5073940;28;20121;-78
2022/10/05 01:20:42;;;;;;;8.15;6.20;;;14.80;99.90;;;;;;5072454;28;20041;-78
2022/10/05 01:23:53;;;;;;;8.27;6.28;;;14.90;99.90;;;;;;5073570;28;20052;-78
2022/10/05 01:26:19;;;;;;;8.38;6.82;;;14.90;99.90;;;;;;5073445;28;20087;-78
2022/10/05 01:29:14;;;;;;;12.20;7.10;;;14.90;99.90;;;;;;5073542;28;20084;-78
2022/10/05 01:32:07;;;;;;;9.50;6.75;;;14.80;99.90;;;;;;5072438;28;20396;-78
2022/10/05 01:34:41;;;;;;;9.68;6.90;;;14.80;99.90;;;;;;5073537;28;20143;-78
2022/10/05 01:37:27;;;;;;;8.55;6.60;;;14.80;99.90;;;;;;5073146;28;20500;-78
2022/10/05 01:40:25;;;;;;;9.95;6.32;;;14.80;99.90;;;;;;5073390;28;20508;-78
2022/10/05 01:43:01;;;;;;;10.23;7.18;;;14.80;99.90;;;;;;5073226;28;20057;-78
2022/10/05 01:45:35;;;;;;;9.48;7.15;;;14.80;99.90;;;;;;5073279;28;20059;-78
2022/10/05 01:48:10;;;;;;;10.73;7.90;;;14.80;99.90;;;;;;5073338;28;20048;-78
2022/10/05 01:50:55;;;;;;;10.82;7.38;;;14.80;99.90;;;;;;5073228;28;20480;-78
2022/10/05 01:54:10;;;;;;;9.20;7.63;;;14.80;99.90;;;;;;5073290;28;20056;-77
2022/10/05 01:56:58;;;;;;;7.85;6.90;;;14.80;99.90;;;;;;5050845;28;20045;-78
2022/10/05 01:59:27;;;;;;;;;;;14.80;99.90;;;;;;5073349;28;20472;-78
2022/10/05 02:01:56;;;;;;;11.95;7.80;;;14.70;99.90;;;;;;5073133;28;20003;-78
2022/10/05 02:04:30;;;;;;;8.55;7.28;;;14.80;99.90;;;;;;5071890;28;20051;-78
2022/10/05 02:06:57;;;;;;;10.13;7.25;;;14.80;99.90;;;;;;5072267;28;20044;-78
2022/10/05 02:09:28;;;;;;;16.33;7.30;;;14.70;99.90;;;;;;5073059;28;20131;-78
2022/10/05 02:12:01;;;;;;;10.90;7.82;;;14.90;99.90;;;;;;5076833;28;20384;-78
2022/10/05 02:14:33;;;;;;;8.65;6.70;;;14.60;99.90;;;;;;5076778;28;20048;-78
2022/10/05 02:17:04;;;;;;;9.80;7.00;;;14.70;99.90;;;;;;5076894;28;20053;-78
2022/10/05 02:19:36;;;;;;;10.98;6.75;;;14.70;99.90;;;;;;5076847;28;20045;-78
2022/10/05 02:22:10;;;;;;;10.07;6.95;;;14.70;99.90;;;;;;5076712;28;20045;-78
2022/10/05 02:24:41;;;;;;;7.88;6.68;;;14.70;99.90;;;;;;5076471;28;20033;-78
2022/10/05 02:27:09;;;;;;;7.70;6.43;;;14.70;99.90;;;;;;5076014;28;20103;-78
2022/10/05 02:29:38;;;;;;;8.57;6.20;;;14.70;99.90;;;;;;5076505;28;20040;-78
2022/10/05 02:32:10;;;;;;;11.00;7.18;;;14.70;99.90;;;;;;5076498;28;20407;-78
2022/10/05 02:34:38;;;;;;;10.48;6.97;;;14.70;99.90;;;;;;5076947;28;20041;-78
2022/10/05 02:37:19;;;;;;;9.93;6.97;;;14.70;99.90;;;;;;5076646;28;20071;-78
2022/10/05 02:39:59;;;;;;;8.77;6.72;;;14.70;99.90;;;;;;5076405;28;20040;-78
2022/10/05 02:42:41;;;;;;;7.93;6.50;;;14.60;99.90;;;;;;5074741;28;20052;-78
2022/10/05 02:45:39;;;;;;;8.68;6.57;;;14.60;99.90;;;;;;5076192;28;20044;-78
2022/10/05 02:48:19;;;;;;;9.37;6.60;;;14.60;99.90;;;;;;5070845;28;20083;-78
2022/10/05 02:51:26;;;;;;;9.38;6.65;;;14.60;99.90;;;;;;5076260;28;20040;-78
2022/10/05 02:54:18;;;;;;;7.45;5.90;;;14.50;99.90;;;;;;5053837;28;20052;-78
2022/10/05 02:57:12;;;;;;;8.20;6.03;;;14.50;99.90;;;;;;5054104;28;20072;-78
2022/10/05 02:59:44;;;;;;;8.48;6.57;;;14.60;99.90;;;;;;5072785;28;20527;-78
2022/10/05 03:02:25;;;;;;;9.88;5.97;;;14.50;99.90;;;;;;5075909;28;20044;-78
2022/10/05 03:04:50;;;;;;;8.10;6.32;;;14.50;99.90;;;;;;5075780;28;20486;-78
2022/10/05 03:07:26;;;;;;;7.20;5.77;;;14.50;99.90;;;;;;5075805;28;20050;-78
2022/10/05 03:09:58;;;;;;;8.30;5.90;;;14.50;99.90;;;;;;5075801;28;20503;-78
2022/10/05 03:12:38;;;;;;;7.47;6.00;;;14.70;99.90;;;;;;5075759;28;20047;-78
2022/10/05 03:15:23;;;;;;;8.13;6.30;;;14.50;99.90;;;;;;5076062;28;20393;-78
2022/10/05 03:18:03;;;;;;;8.45;6.18;;;14.50;99.90;;;;;;5075591;28;20083;-78
2022/10/05 03:21:02;;;;;;;9.30;6.18;;;14.50;99.90;;;;;;5075569;28;20127;-78
2022/10/05 03:23:59;;;;;;;7.97;6.15;;;14.40;99.90;;;;;;5075165;28;20048;-78
2022/10/05 03:26:46;;;;;;;8.20;6.13;;;14.40;99.90;;;;;;5074690;28;20086;-78
2022/10/05 03:29:32;;;;;;;8.27;6.07;;;14.40;99.90;;;;;;5075371;28;20040;-78
2022/10/05 03:32:22;;;;;;;9.55;6.38;;;14.40;99.90;;;;;;5074515;28;20052;-78
2022/10/05 03:35:13;;;;;;;8.75;6.20;;;14.30;99.90;;;;;;5075335;28;20140;-78
2022/10/05 03:37:54;;;;;;;9.27;6.63;;;14.30;99.90;;;;;;5075781;28;20404;-78
2022/10/05 03:40:33;;;;;;;6.65;5.90;;;14.30;99.90;;;;;;5075476;28;20487;-78
2022/10/05 03:43:42;;;;;;;8.43;6.35;;;14.20;99.90;;;;;;5075281;28;20068;-78
2022/10/05 03:46:34;;;;;;;9.38;7.32;;;14.20;99.90;;;;;;5074919;28;20060;-78
2022/10/05 03:49:13;;;;;;;7.82;6.88;;;14.20;99.90;;;;;;5075023;28;20052;-78
2022/10/05 03:51:44;;;;;;;8.98;6.63;;;14.20;99.90;;;;;;5074979;28;20041;-78
2022/10/05 03:54:20;;;;;;;10.48;7.38;;;14.20;99.90;;;;;;5075106;28;20485;-78
2022/10/05 03:56:51;;;;;;;9.80;7.18;;;14.20;99.90;;;;;;5073796;28;20411;-78
2022/10/05 03:59:36;;;;;;;9.95;7.18;;;14.20;99.90;;;;;;5074882;28;20114;-78
2022/10/05 04:02:06;;;;;;;8.52;7.00;;;14.20;99.90;;;;;;5074789;28;20049;-78
2022/10/05 04:04:44;;;;;;;12.05;7.70;;;14.20;99.90;;;;;;5074475;28;20041;-78
2022/10/05 04:07:20;;;;;;;10.48;7.13;;;14.20;99.90;;;;;;5074680;28;20037;-78
2022/10/05 04:09:51;;;;;;;9.15;7.47;;;14.20;99.90;;;;;;5074649;28;20406;-78
2022/10/05 04:12:29;;;;;;;10.45;7.47;;;14.20;99.90;;;;;;5073541;28;20044;-78
2022/10/05 04:15:04;;;;;;;9.52;7.38;;;14.20;99.90;;;;;;5074485;28;20480;-78
2022/10/05 04:17:39;;;;;;;9.13;7.82;;;14.20;99.90;;;;;;5074368;28;20044;-78
2022/10/05 04:20:15;;;;;;;9.98;7.72;;;14.20;99.90;;;;;;5074781;28;20091;-78
2022/10/05 04:23:05;;;;;;;11.05;7.68;;;14.20;99.90;;;;;;5074306;28;20052;-78
2022/10/05 04:25:39;;;;;;;13.02;7.75;;;14.60;99.90;;;;;;5062588;28;20517;-78
2022/10/05 04:28:19;;;;;;;10.27;7.25;;;14.20;99.90;;;;;;5074264;28;20090;-78
2022/10/05 04:30:49;;;;;;;10.10;8.23;;;14.20;99.90;;;;;;5074689;28;20135;-78
2022/10/05 04:33:15;;;;;;;11.57;7.93;;;14.20;99.90;;;;;;5074305;28;20040;-78
2022/10/05 04:36:09;;;;;;;9.47;7.57;;;14.20;99.90;;;;;;5074069;28;20078;-78
2022/10/05 04:38:52;;;;;;;11.40;8.00;;;14.20;99.90;;;;;;5068953;28;20503;-78
2022/10/05 04:41:42;;;;;;;10.88;8.20;;;14.20;99.90;;;;;;5074038;28;20102;-78
2022/10/05 04:44:19;;;;;;;13.30;9.25;;;14.20;99.90;;;;;;5073704;28;20129;-78
2022/10/05 04:47:21;;;;;;;13.52;8.13;;;14.20;99.90;;;;;;5074200;28;20049;-78
2022/10/05 04:50:05;;;;;;;12.88;8.77;;;14.20;99.90;;;;;;5074187;28;20127;-78
2022/10/05 04:52:58;;;;;;;10.63;9.13;;;14.10;99.90;;;;;;5072787;28;20048;-78
2022/10/05 04:55:30;;;;;;;10.95;8.52;;;14.10;99.90;;;;;;5073886;28;20039;-78
2022/10/05 04:58:28;;;;;;;14.15;9.77;;;14.00;99.90;;;;;;5073652;28;20500;-78
2022/10/05 05:01:13;;;;;;;11.67;9.27;;;14.00;99.90;;;;;;5074162;28;20045;-78
2022/10/05 05:03:57;;;;;;;12.77;9.23;;;14.00;99.90;;;;;;5073767;28;20147;-78
2022/10/05 05:07:14;;;;;;;12.65;9.63;;;14.00;99.90;;;;;;5073828;28;20044;-78
2022/10/05 05:10:17;;;;;;;12.95;9.48;;;13.90;99.90;;;;;;5051734;28;20052;-78
2022/10/05 05:12:56;;;;;;;13.32;9.55;;;13.90;99.90;;;;;;5073795;28;20048;-78
2022/10/05 05:15:35;;;;;;;12.38;9.48;;;14.20;99.90;;;;;;5073311;28;20449;-78
2022/10/05 05:18:03;;;;;;;12.18;9.57;;;13.80;99.90;;;;;;5073685;28;20071;-78
2022/10/05 05:20:54;;;;;;;10.95;9.30;;;13.80;99.90;;;;;;5073475;28;20048;-78
2022/10/05 05:23:53;;;;;;;16.27;10.88;;;13.80;99.90;;;;;;5072749;28;20131;-78
2022/10/05 05:26:21;;;;;;;12.43;10.05;;;13.80;99.90;;;;;;5073920;28;20091;-78
2022/10/05 05:29:01;;;;;;;12.73;9.70;;;13.70;99.90;;;;;;5073545;28;20040;-78
2022/10/05 05:31:51;;;;;;;13.10;9.60;;;13.70;99.90;;;;;;5073636;28;20045;-79
2022/10/05 05:34:46;;;;;;;15.55;10.43;;;13.70;99.90;;;;;;5073355;28;20044;-78
2022/10/05 05:37:31;;;;;;;13.93;10.32;;;13.70;99.90;;;;;;5073822;28;20119;-78
2022/10/05 05:40:32;;;;;;;14.27;9.93;;;13.80;99.90;;;;;;5073447;28;20044;-78
2022/10/05 05:43:24;;;;;;;12.88;10.43;;;13.70;99.90;;;;;;5069512;28;20056;-80
2022/10/05 05:45:59;;;;;;;12.88;9.18;;;13.70;99.90;;;;;;5075721;28;20044;-80
2022/10/05 05:48:35;;;;;;;12.27;9.60;;;13.80;99.90;;;;;;5077366;28;20053;-79
2022/10/05 05:51:10;;;;;;;13.52;10.88;;;13.80;99.90;;;;;;5077169;28;20044;-78
2022/10/05 05:53:44;;;;;;;13.32;10.40;;;13.80;99.90;;;;;;5077618;28;20056;-77
2022/10/05 05:56:11;;;;;;;15.23;10.70;;;13.80;99.90;;;;;;5077136;28;20084;-79
2022/10/05 05:59:00;;;;;;;;;;;13.80;99.90;;;;;;5077419;28;20048;-80
2022/10/05 06:01:29;;;;;;;11.15;9.90;;;13.80;99.90;;;;;;5071570;28;19924;-79
2022/10/05 06:04:04;;;;;;;14.40;9.25;;;13.80;99.90;;;;;;5076974;28;20484;-80
2022/10/05 06:06:33;;;;;;;13.73;10.65;;;13.80;99.90;;;;;;5076992;28;20044;-78
2022/10/05 06:09:23;;;;;;;19.75;10.57;;;14.20;99.90;;;;;;5077095;28;20055;-79
2022/10/05 06:11:52;;;;;;;13.85;9.90;;;13.80;99.90;;;;;;5076783;28;20051;-80
2022/10/05 06:14:27;;;;;;;11.60;10.40;;;13.90;99.90;;;;;;5076900;28;20098;-78
2022/10/05 06:17:16;;;;;;;12.88;10.38;;;14.40;99.90;;;;;;5076780;28;20472;-79
2022/10/05 06:19:43;;;;;;;12.70;10.43;;;14.00;99.90;;;;;;5064872;28;20057;-78
2022/10/05 06:22:15;;;;;;;13.27;10.85;;;13.90;99.90;;;;;;5076502;28;20045;-78
2022/10/05 06:25:14;;;;;;;15.65;10.40;;;14.00;99.90;;;;;;5075332;28;20053;-79
2022/10/05 06:28:02;;;;;;;13.85;10.25;;;14.00;99.90;;;;;;5077015;28;20442;-77
2022/10/05 06:30:55;;;;;;;12.52;10.07;;;14.00;99.90;;;;;;5075589;28;20059;-79
2022/10/05 06:33:29;;;;;;;11.63;9.82;;;14.00;99.90;;;;;;5076467;28;20051;-77
2022/10/05 06:36:25;;;;;;;12.77;9.68;;;14.00;99.90;;;;;;5076392;28;20040;-75
2022/10/05 06:39:15;;;;;;;11.57;9.52;;;14.00;99.90;;;;;;5076400;28;20048;-76
2022/10/05 06:41:56;;;;;;;13.27;10.38;;;14.10;99.90;;;;;;5076139;28;20041;-75
2022/10/05 06:44:45;;;;;;;11.60;9.40;;;14.10;99.90;;;;;;5076431;28;20498;-74
2022/10/05 06:47:22;;;;;;;14.25;9.85;;;14.10;99.90;;;;;;5072043;28;20087;-75
2022/10/05 06:50:09;;;;;;;12.55;9.60;;;14.20;99.90;;;;;;5076154;28;20424;-76
2022/10/05 06:52:49;;;;;;;10.52;8.57;;;14.10;99.90;;;;;;5076449;28;20049;-76
2022/10/05 06:55:53;;;;;;;9.43;8.25;;;14.20;99.90;;;;;;5076095;28;20041;-76
2022/10/05 06:58:33;;;;;;;9.45;8.50;;;14.20;99.90;;;;;;5066735;28;20060;-76
2022/10/05 07:01:10;;;;;;;9.95;8.60;;;14.20;99.90;;;;;;5076291;28;20123;-77
2022/10/05 07:04:01;;;;;;;11.03;8.27;;;14.30;99.90;;;;;;5074820;28;20076;-78
2022/10/05 07:06:50;;;;;;;10.95;8.52;;;14.30;99.90;;;;;;5076280;28;20040;-80
2022/10/05 07:09:45;;;;;;;9.82;8.27;;;14.30;99.90;;;;;;5075888;28;20044;-79
2022/10/05 07:12:29;;;;;;;10.93;8.25;;;14.30;99.90;;;;;;5075522;28;20036;-82
2022/10/05 07:15:05;;;;;;;10.95;8.57;;;14.20;99.90;;;;;;5076107;28;20063;-78
2022/10/05 07:17:45;;;;;;;9.35;7.90;;;14.30;99.90;;;;;;5075666;28;20044;-75
2022/10/05 07:20:31;;;;;;;13.43;8.50;;;14.40;99.90;;;;;;5075574;28;20071;-76
2022/10/05 07:23:11;;;;;;;9.35;8.05;;;14.40;99.90;;;;;;5075543;28;20044;-75
2022/10/05 07:26:04;;;;;;;11.63;8.65;;;14.50;99.90;;;;;;5074881;28;20052;-75
2022/10/05 07:28:52;;;;;;;11.15;8.80;;;14.50;99.90;;;;;;5069990;28;20401;-74
2022/10/05 07:31:33;;;;;;;10.43;7.95;;;14.50;99.90;;;;;;5075314;28;20052;-74
2022/10/05 07:34:38;;;;;;;10.45;8.25;;;14.50;99.90;;;;;;5075326;28;20055;-75
2022/10/05 07:40:09;;;;;;;12.52;8.88;;;14.50;99.90;;;;;;5075219;28;20061;-74
2022/10/05 07:42:58;;;;;;;9.85;7.82;;;14.60;99.90;;;;;;5074959;28;20055;-75
2022/10/05 07:45:50;;;;;;;9.18;8.07;;;14.50;99.90;;;;;;5073732;28;20051;-76
2022/10/05 07:48:31;;;;;;;9.02;8.13;;;14.60;99.90;;;;;;5075396;28;20465;-76
2022/10/05 07:51:11;;;;;;;12.05;8.20;;;14.60;99.90;;;;;;5075181;28;20132;-76
2022/10/05 07:53:44;;;;;;;10.25;7.90;;;14.70;99.90;;;;;;5074716;28;20132;-77
2022/10/05 07:56:43;;;;;;;9.93;8.82;;;15.00;99.90;;;;;;5074698;28;20496;-79
2022/10/05 07:59:18;;;;;;;10.68;8.48;;;14.70;99.90;;;;;;5074484;28;20617;-77
2022/10/05 08:01:48;;;;;;;9.70;8.20;;;14.80;99.90;;;;;;5073397;28;20072;-79
2022/10/05 08:04:24;;;;;;;9.77;8.02;;;14.80;99.90;;;;;;5074575;28;20059;-78
2022/10/05 08:07:03;;;;;;;9.88;7.95;;;14.90;99.90;;;;;;5073140;28;20047;-79
2022/10/05 08:09:39;;;;;;;11.00;7.95;;;14.90;99.90;;;;;;5073158;28;20051;-78
2022/10/05 08:12:19;;;;;;;9.73;7.40;;;15.00;99.90;;;;;;5073040;28;20101;-76
2022/10/05 08:15:10;;;;;;;9.20;7.30;;;14.90;99.90;;;;;;5074192;28;20045;-77
2022/10/05 08:17:51;;;;;;;11.00;7.30;;;15.00;99.90;;;;;;5073391;28;20040;-78
2022/10/05 08:20:26;;;;;;;9.10;7.25;;;15.00;99.90;;;;;;5065084;28;20048;-81
2022/10/05 08:23:22;;;;;;;9.32;7.25;;;15.00;99.90;;;;;;5052464;28;20469;-81
2022/10/05 08:26:00;;;;;;;12.70;7.40;;;15.10;99.90;;;;;;5053541;28;20159;-77
2022/10/05 08:28:33;;;;;;;7.93;6.95;;;15.10;99.90;;;;;;5053616;28;20446;-77
2022/10/05 08:31:13;;;;;;;10.02;7.05;;;15.60;99.90;;;;;;5052273;28;20041;-80
2022/10/05 08:34:03;;;;;;;9.60;6.68;;;15.20;99.90;;;;;;5053178;28;20049;-78
2022/10/05 08:36:47;;;;;;;7.68;6.68;;;15.50;99.90;;;;;;5052475;28;20054;-78
2022/10/05 08:39:19;;;;;;;8.32;7.00;;;15.30;99.90;;;;;;5052279;28;20497;-78
2022/10/05 08:42:09;;;;;;;7.20;6.20;;;15.40;99.90;;;;;;5059633;28;20087;-79
2022/10/05 08:44:44;;;;;;;7.65;5.97;;;15.40;99.90;;;;;;5072531;28;20143;-78
2022/10/05 08:47:27;;;;;;;8.40;6.10;;;15.90;99.90;;;;;;5070150;28;20127;-79
2022/10/05 08:50:07;;;;;;;6.80;6.10;;;15.50;99.90;;;;;;5073227;28;20485;-76
2022/10/05 08:52:47;;;;;;;7.25;5.78;;;15.70;99.90;;;;;;5072947;28;20041;-76
2022/10/05 08:55:44;;;;;;;9.25;5.85;;;15.70;99.90;;;;;;5073891;28;20080;-79
2022/10/05 08:58:39;;;;;;;6.55;5.50;;;15.70;99.90;;;;;;5073499;28;20049;-77
2022/10/05 09:01:33;;;;;;;7.32;5.30;;;15.80;99.90;;;;;;5073573;28;20441;-78
2022/10/05 09:04:20;;;;;;;6.80;4.95;;;15.90;99.90;;;;;;5073501;28;20435;-77
2022/10/05 09:06:59;;;;;;;10.02;5.10;;;15.90;99.90;;;;;;5073546;28;20059;-76
2022/10/05 09:09:46;;;;;;;6.47;5.15;;;16.00;99.90;;;;;;5073513;28;20127;-74
2022/10/05 09:13:02;;;;;;;6.30;4.40;;;16.00;99.90;;;;;;5073557;28;20093;-81
2022/10/05 09:15:39;;;;;;;7.10;4.40;;;16.10;99.90;;;;;;5063707;28;20059;-79
2022/10/05 09:18:13;;;;;;;4.50;4.05;;;16.10;99.90;;;;;;5073305;28;20045;-76
2022/10/05 09:20:52;;;;;;;5.43;4.20;;;16.20;99.90;;;;;;5072782;28;20052;-81
2022/10/05 09:23:36;;;;;;;5.80;3.80;;;16.20;99.90;;;;;;5072065;28;20051;-81
2022/10/05 09:26:40;;;;;;;5.85;3.67;;;16.20;99.90;;;;;;5072100;28;20072;-80
2022/10/05 09:29:14;;;;;;;7.15;4.50;;;16.30;99.90;;;;;;5072490;28;20051;-85
2022/10/05 09:31:40;;;;;;;5.50;4.10;;;16.30;99.90;;;;;;5072057;28;20056;-82
2022/10/05 09:34:46;;;;;;;6.20;3.77;;;16.30;99.90;;;;;;5073257;28;20113;-82
2022/10/05 09:37:32;;;;;;;4.20;3.80;;;16.30;99.90;;;;;;5072258;28;20396;-80
2022/10/05 09:40:18;;;;;;;5.47;4.07;;;16.30;99.90;;;;;;5072072;28;20106;-82
2022/10/05 09:42:58;;;;;;;5.70;4.20;;;16.30;99.90;;;;;;5073215;28;20052;-83
2022/10/05 09:45:35;;;;;;;5.13;4.07;;;16.30;99.90;;;;;;5071923;28;20074;-83
2022/10/05 09:48:11;;;;;;;6.07;3.80;;;16.30;99.90;;;;;;5072267;28;20056;-84
2022/10/05 09:50:39;;;;;;;5.07;3.40;;;16.40;99.90;;;;;;5072815;28;20049;-81
2022/10/05 09:53:39;;;;;;;6.47;4.32;;;16.30;99.90;;;;;;5072950;28;20075;-81
2022/10/05 09:56:37;;;;;;;4.53;3.88;;;16.40;99.90;;;;;;5073212;28;20045;-82
2022/10/05 09:59:34;;;;;;;4.38;3.70;;;16.40;99.90;;;;;;5057701;28;20079;-80
2022/10/05 10:02:17;;;;;;;5.40;3.78;;;16.40;99.90;;;;;;5072190;28;20048;-80
2022/10/05 10:04:51;;;;;;;5.47;4.47;;;16.40;99.90;;;;;;5071837;28;20036;-81
2022/10/05 10:07:35;;;;;;;4.13;3.72;;;16.30;99.90;;;;;;5073124;28;20044;-82
2022/10/05 10:10:22;;;;;;;5.03;4.20;;;16.40;99.90;;;;;;5078478;28;20043;-77
2022/10/05 10:13:09;;;;;;;4.33;3.93;;;16.30;99.90;;;;;;5075102;28;20045;-78
2022/10/05 10:16:02;;;;;;;4.70;4.00;;;16.30;99.90;;;;;;5072873;28;20123;-79
2022/10/05 10:18:48;;;;;;;5.05;3.88;;;16.40;99.90;;;;;;5072794;28;20049;-79
2022/10/05 10:21:37;;;;;;;5.13;3.60;;;16.40;99.90;;;;;;5073019;28;20048;-81
2022/10/05 10:24:14;;;;;;;7.10;4.10;;;16.40;99.90;;;;;;5067367;28;20048;-77
2022/10/05 10:27:05;;;;;;;4.28;3.75;;;16.50;99.90;;;;;;5072843;28;20044;-79
2022/10/05 10:29:56;;;;;;;6.57;4.10;;;16.50;99.90;;;;;;5072596;28;20431;-80
2022/10/05 10:32:34;;;;;;;4.22;3.55;;;16.50;99.90;;;;;;5076060;28;20051;-78
2022/10/05 10:34:59;;;;;;;;;;;16.60;99.90;;;;;;5076822;28;20039;-82
2022/10/05 10:37:39;;;;;;;4.65;3.70;;;16.60;99.90;;;;;;5076132;28;20276;-79
2022/10/05 10:40:33;;;;;;;4.78;3.40;;;16.60;99.90;;;;;;5076310;28;20054;-79
2022/10/05 10:43:26;;;;;;;4.97;3.22;;;16.60;99.90;;;;;;5076306;28;20404;-80
2022/10/05 10:46:00;;;;;;;4.45;3.42;;;16.70;99.90;;;;;;5075780;28;20052;-78
2022/10/05 10:48:29;;;;;;;4.63;3.25;;;16.70;99.90;;;;;;5076074;28;20037;-76
2022/10/05 10:51:11;;;;;;;5.15;2.83;;;16.70;99.90;;;;;;5075663;28;20378;-80
2022/10/05 10:54:07;;;;;;;4.13;2.90;;;16.80;99.90;;;;;;5076103;28;20174;-81
2022/10/05 10:57:07;;;;;;;5.47;2.85;;;16.90;99.90;;;;;;5076021;28;20048;-80
2022/10/05 10:59:58;;;;;;;3.78;2.63;;;16.90;99.90;;;;;;5069742;28;20057;-80
2022/10/05 11:02:47;;;;;;;3.40;2.63;;;16.90;99.90;;;;;;5075660;28;20076;-80
2022/10/05 11:05:39;;;;;;;4.15;2.40;;;16.90;99.90;;;;;;5075632;28;20044;-79
2022/10/05 11:08:32;;;;;;;4.07;2.70;;;17.00;99.90;;;;;;5075637;28;20063;-80
2022/10/05 11:11:29;;;;;;;4.63;2.70;;;17.00;99.90;;;;;;5075649;28;20040;-79
2022/10/05 11:14:32;;;;;;;4.63;2.72;;;17.10;99.90;;;;;;5075784;28;20044;-81
2022/10/05 11:17:23;;;;;;;4.40;2.90;;;17.20;99.90;;;;;;5074951;28;20040;-80
2022/10/05 11:20:20;;;;;;;5.75;2.85;;;17.20;99.90;;;;;;5075538;28;20045;-78
2022/10/05 11:23:31;;;;;;;3.33;2.70;;;17.20;99.90;;;;;;5075315;28;20101;-78
2022/10/05 11:26:29;;;;;;;3.83;2.78;;;17.30;99.90;;;;;;5069609;28;20059;-79
2022/10/05 11:29:12;;;;;;;5.22;3.25;;;17.40;99.90;;;;;;5066470;28;20500;-81
2022/10/05 11:31:56;;;;;;;4.03;3.13;;;17.40;99.90;;;;;;5075059;28;20044;-81
2022/10/05 11:34:48;;;;;;;5.72;2.90;;;17.40;99.90;;;;;;5075280;28;20484;-78
2022/10/05 11:37:56;;;;;;;5.68;3.35;;;17.50;99.90;;;;;;5074801;28;20492;-78
2022/10/05 11:40:49;;;;;;;5.43;2.80;;;17.50;99.90;;;;;;5074947;28;20496;-80
2022/10/05 11:43:36;;;;;;;4.63;3.15;;;17.60;99.90;;;;;;5074243;28;20112;-80
2022/10/05 11:46:36;;;;;;;6.28;3.13;;;17.60;99.90;;;;;;5074967;28;20484;-79
2022/10/05 11:49:24;;;;;;;4.95;2.88;;;17.80;99.90;;;;;;5061115;28;20098;-82
2022/10/05 11:51:53;;;;;;;;;;;17.80;99.90;;;;;;5075257;28;20123;-79
2022/10/05 11:54:31;;;;;;;6.35;3.00;;;17.80;99.90;;;;;;5074587;28;19973;-80
2022/10/05 11:57:10;;;;;;;6.30;2.95;;;17.90;99.90;;;;;;5074238;28;20052;-78
2022/10/05 11:59:54;;;;;;;5.00;2.97;;;17.90;99.90;;;;;;5074824;28;20040;-80
2022/10/05 12:02:40;;;;;;;5.65;2.95;;;17.90;99.90;;;;;;5074575;28;20040;-79
2022/10/05 12:05:31;;;;;;;4.60;2.72;;;17.90;99.90;;;;;;5073074;28;20556;-83
2022/10/05 12:08:27;;;;;;;5.10;2.88;;;17.90;99.90;;;;;;5074870;28;20484;-79
2022/10/05 12:11:14;;;;;;;5.07;2.78;;;17.80;99.90;;;;;;5074703;28;20063;-80
2022/10/05 12:13:53;;;;;;;6.50;2.90;;;17.80;99.90;;;;;;5074344;28;20055;-80
2022/10/05 12:16:26;;;;;;;5.78;2.90;;;17.90;99.90;;;;;;5074440;28;20093;-79
2022/10/05 12:19:00;;;;;;;4.38;2.80;;;17.80;99.90;;;;;;5074474;28;20115;-79
2022/10/05 12:21:34;;;;;;;4.53;2.47;;;17.80;99.90;;;;;;5074387;28;20084;-77
2022/10/05 12:24:35;;;;;;;4.85;2.08;;;17.70;99.90;;;;;;5073894;28;20048;-82
2022/10/05 12:27:06;;;;;;;3.85;2.22;;;17.70;99.90;;;;;;5050425;28;20442;-83
2022/10/05 12:29:42;;;;;;;3.63;2.28;;;17.70;99.90;;;;;;5074054;28;20040;-78
2022/10/05 12:32:22;;;;;;;3.20;2.17;;;17.70;99.90;;;;;;5074241;28;20048;-83
2022/10/05 12:35:21;;;;;;;4.90;2.60;;;17.70;99.90;;;;;;5074053;28;20045;-83
2022/10/05 12:37:57;;;;;;;5.05;2.30;;;17.60;99.90;;;;;;5073898;28;20109;-80
2022/10/05 12:40:28;;;;;;;6.68;2.65;;;17.60;99.90;;;;;;5073664;28;20084;-78
2022/10/05 12:43:11;;;;;;;5.40;2.40;;;17.60;99.90;;;;;;5073380;28;20049;-77
2022/10/05 12:45:57;;;;;;;3.22;2.40;;;17.60;99.90;;;;;;5072670;28;20442;-79
2022/10/05 12:48:31;;;;;;;4.63;2.53;;;17.60;99.90;;;;;;5073974;28;20048;-80
2022/10/05 12:51:16;;;;;;;6.18;2.47;;;17.60;99.90;;;;;;5073663;28;20074;-78
2022/10/05 12:54:10;;;;;;;3.80;2.38;;;17.60;99.90;;;;;;5073724;28;20048;-76
2022/10/05 12:56:47;;;;;;;5.55;2.78;;;17.60;99.90;;;;;;5053839;28;20061;-76
2022/10/05 12:59:22;;;;;;;6.50;2.80;;;17.60;99.90;;;;;;5073624;28;20397;-77
2022/10/05 13:02:03;;;;;;;7.70;3.10;;;17.70;99.90;;;;;;5073595;28;20287;-81
2022/10/05 13:04:50;;;;;;;7.20;2.97;;;17.70;99.90;;;;;;5073609;28;20497;-76
2022/10/05 13:07:37;;;;;;;5.72;2.50;;;17.70;99.90;;;;;;5073512;28;20080;-81
2022/10/05 13:10:15;;;;;;;5.22;2.70;;;17.80;99.90;;;;;;5073415;28;20442;-80
2022/10/05 13:12:53;;;;;;;4.20;2.72;;;17.80;99.90;;;;;;5073641;28;20048;-76
2022/10/05 13:15:45;;;;;;;6.20;2.47;;;17.90;99.90;;;;;;5073591;28;20033;-78
2022/10/05 13:18:36;;;;;;;8.65;2.60;;;17.90;99.90;;;;;;5073135;28;20044;-79
2022/10/05 13:21:11;;;;;;;3.92;2.50;;;18.00;99.90;;;;;;5072356;28;20046;-79
2022/10/05 13:23:55;;;;;;;6.78;2.55;;;18.10;99.90;;;;;;5073264;28;20063;-78
2022/10/05 13:26:32;;;;;;;5.13;2.33;;;18.10;99.90;;;;;;5073082;28;20056;-76
2022/10/05 13:29:11;;;;;;;3.50;2.30;;;18.10;99.90;;;;;;5073385;28;20049;-79
2022/10/05 13:31:45;;;;;;;4.60;2.42;;;18.20;99.90;;;;;;5073552;28;20443;-77
2022/10/05 13:34:35;;;;;;;3.13;2.20;;;18.20;99.90;;;;;;5073250;28;20036;-79
2022/10/05 13:37:38;;;;;;;5.30;2.30;;;18.20;99.90;;;;;;5073237;28;20045;-80
2022/10/05 13:40:19;;;;;;;3.90;2.10;;;18.20;99.90;;;;;;5073084;28;20396;-78
2022/10/05 13:42:53;;;;;;;2.53;1.90;;;18.30;99.90;;;;;;5073292;28;20056;-76
2022/10/05 13:45:28;;;;;;;5.03;2.08;;;18.30;99.90;;;;;;5073250;28;20044;-80
2022/10/05 13:47:59;;;;;;;3.05;2.22;;;18.40;99.90;;;;;;5073288;28;20040;-78
2022/10/05 13:51:23;;;;;;;6.93;2.10;;;18.40;99.90;;;;;;5073176;28;20050;-81
2022/10/05 13:53:51;;;;;;;6.65;2.15;;;18.50;99.90;;;;;;5045701;28;20052;-81
2022/10/05 13:56:24;;;;;;;4.35;2.20;;;18.60;99.90;;;;;;5073105;28;20044;-78
2022/10/05 13:59:01;;;;;;;5.40;2.10;;;18.60;99.90;;;;;;5073124;28;20055;-79
2022/10/05 14:01:40;;;;;;;4.40;2.00;;;18.70;99.90;;;;;;5073113;28;20055;-78
2022/10/05 14:04:19;;;;;;;6.75;2.25;;;18.70;99.90;;;;;;5073107;28;20051;-81
2022/10/05 14:06:47;;;;;;;3.33;2.08;;;18.70;99.90;;;;;;5075051;28;20487;-80
2022/10/05 14:09:28;;;;;;;4.20;2.10;;;18.80;99.90;;;;;;5076363;28;20477;-78